createdAt,value
2018-05-07T00:02:14.203Z,17.85
2018-05-07T00:04:39.949Z,17.55
2018-05-07T00:07:05.495Z,17.65
2018-05-07T00:09:31.216Z,17.90
2018-05-07T00:11:56.872Z,17.68
2018-05-07T00:14:22.396Z,17.49
2018-05-07T00:16:47.981Z,17.31
2018-05-07T00:19:13.787Z,17.37
2018-05-07T00:21:39.337Z,17.29
2018-05-07T00:24:04.889Z,17.45
2018-05-07T00:26:30.622Z,17.24
2018-05-07T00:28:56.152Z,17.19
2018-05-07T00:31:21.804Z,17.19
2018-05-07T00:33:47.512Z,17.26
2018-05-07T00:36:13.143Z,17.30
2018-05-07T00:38:38.753Z,17.23
2018-05-07T00:41:05.601Z,17.18
2018-05-07T00:43:31.114Z,16.80
2018-05-07T00:45:56.663Z,16.87
2018-05-07T00:48:22.414Z,17.02
2018-05-07T00:50:48.406Z,17.04
2018-05-07T00:53:13.960Z,17.13
2018-05-07T00:55:39.795Z,17.09
2018-05-07T00:58:05.351Z,16.81
2018-05-07T01:00:31.004Z,17.19
2018-05-07T01:02:56.732Z,17.16
2018-05-07T01:05:22.287Z,16.92
2018-05-07T01:07:47.833Z,16.56
2018-05-07T01:10:13.606Z,16.59
2018-05-07T01:12:39.186Z,16.57
2018-05-07T01:15:04.680Z,16.53
2018-05-07T01:17:30.473Z,16.60
2018-05-07T01:19:56.199Z,16.65
2018-05-07T01:22:21.716Z,16.67
2018-05-07T01:24:47.506Z,16.44
2018-05-07T01:27:13.074Z,16.40
2018-05-07T01:29:38.668Z,16.18
2018-05-07T01:32:04.420Z,16.40
2018-05-07T01:34:30.010Z,16.45
2018-05-07T01:36:55.608Z,16.24
2018-05-07T01:39:21.661Z,16.10
2018-05-07T01:41:47.196Z,16.25
2018-05-07T01:44:12.742Z,16.14
2018-05-07T01:46:38.517Z,16.17
2018-05-07T01:49:04.049Z,16.04
2018-05-07T01:51:29.584Z,16.31
2018-05-07T01:53:55.226Z,16.13
2018-05-07T01:56:20.751Z,16.01
2018-05-07T01:58:46.318Z,16.00
2018-05-07T02:01:13.131Z,16.08
2018-05-07T02:03:38.715Z,16.08
2018-05-07T02:06:04.327Z,15.97
2018-05-07T02:08:30.151Z,15.81
2018-05-07T02:10:55.682Z,15.73
2018-05-07T02:13:21.199Z,15.97
2018-05-07T02:15:46.961Z,15.71
2018-05-07T02:18:12.595Z,15.80
2018-05-07T02:20:38.294Z,15.74
2018-05-07T02:23:04.005Z,15.82
2018-05-07T02:25:29.553Z,15.83
2018-05-07T02:27:55.139Z,15.71
2018-05-07T02:30:20.938Z,15.67
2018-05-07T02:32:46.501Z,15.61
2018-05-07T02:35:12.292Z,15.60
2018-05-07T02:37:38.254Z,15.54
2018-05-07T02:40:04.078Z,15.68
2018-05-07T02:42:29.686Z,15.67
2018-05-07T02:44:55.549Z,15.53
2018-05-07T02:47:21.139Z,15.79
2018-05-07T02:49:46.702Z,15.58
2018-05-07T02:52:12.477Z,15.62
2018-05-07T02:54:38.068Z,15.68
2018-05-07T02:57:03.632Z,15.67
2018-05-07T02:59:29.349Z,15.64
2018-05-07T03:01:55.463Z,15.43
2018-05-07T03:04:21.041Z,15.48
2018-05-07T03:06:46.852Z,15.44
2018-05-07T03:09:12.489Z,15.38
2018-05-07T03:11:38.347Z,15.55
2018-05-07T03:14:04.160Z,15.43
2018-05-07T03:16:29.745Z,15.23
2018-05-07T03:18:55.359Z,15.21
2018-05-07T03:21:21.175Z,15.33
2018-05-07T03:23:46.769Z,15.30
2018-05-07T03:26:12.346Z,15.06
2018-05-07T03:28:38.250Z,15.12
2018-05-07T03:31:03.812Z,15.12
2018-05-07T03:33:29.556Z,14.98
2018-05-07T03:35:55.371Z,15.03
2018-05-07T03:38:20.973Z,14.87
2018-05-07T03:40:46.631Z,15.18
2018-05-07T03:43:12.483Z,15.29
2018-05-07T03:45:38.053Z,15.08
2018-05-07T03:48:03.620Z,15.29
2018-05-07T03:50:30.462Z,15.34
2018-05-07T03:52:56.051Z,15.25
2018-05-07T03:55:22.336Z,15.07
2018-05-07T03:57:47.927Z,15.13
2018-05-07T04:00:14.003Z,14.92
2018-05-07T04:02:39.600Z,15.08
2018-05-07T04:05:05.557Z,15.04
2018-05-07T04:07:31.190Z,15.07
2018-05-07T04:09:57.416Z,15.03
2018-05-07T04:12:23.049Z,15.13
2018-05-07T04:14:49.109Z,14.96
2018-05-07T04:17:52.283Z,14.98
2018-05-07T04:20:56.172Z,14.82
2018-05-07T04:24:00.165Z,14.84
2018-05-07T04:26:25.813Z,14.79
2018-05-07T04:28:51.396Z,14.62
2018-05-07T04:31:17.778Z,14.66
2018-05-07T04:33:43.569Z,14.62
2018-05-07T04:36:10.242Z,14.69
2018-05-07T04:38:35.825Z,14.66
2018-05-07T04:41:01.773Z,14.69
2018-05-07T04:43:27.817Z,14.69
2018-05-07T04:45:53.807Z,14.49
2018-05-07T04:48:19.380Z,14.66
2018-05-07T04:50:45.205Z,14.82
2018-05-07T04:53:10.852Z,14.73
2018-05-07T04:55:36.991Z,14.59
2018-05-07T04:58:03.141Z,14.58
2018-05-07T05:00:28.759Z,14.68
2018-05-07T05:02:54.317Z,14.50
2018-05-07T05:05:20.299Z,14.48
2018-05-07T05:07:45.875Z,14.40
2018-05-07T05:10:11.456Z,14.50
2018-05-07T05:12:38.570Z,14.38
2018-05-07T05:15:05.931Z,14.48
2018-05-07T05:17:31.759Z,14.37
2018-05-07T05:19:57.527Z,14.37
2018-05-07T05:22:23.152Z,14.60
2018-05-07T05:24:49.113Z,14.59
2018-05-07T05:27:15.331Z,14.63
2018-05-07T05:29:41.268Z,14.78
2018-05-07T05:32:06.873Z,14.81
2018-05-07T05:34:32.983Z,14.94
2018-05-07T05:36:59.392Z,15.10
2018-05-07T05:39:24.959Z,14.92
2018-05-07T05:41:51.058Z,14.99
2018-05-07T05:44:17.484Z,15.05
2018-05-07T05:46:43.657Z,15.04
2018-05-07T05:49:09.412Z,15.36
2018-05-07T05:51:35.273Z,15.04
2018-05-07T05:54:00.923Z,15.31
2018-05-07T05:56:26.661Z,15.31
2018-05-07T07:21:46.478Z,18.37
2018-05-07T07:24:12.048Z,18.64
2018-05-07T07:26:37.858Z,18.00
2018-05-07T07:29:03.421Z,17.99
2018-05-07T07:31:29.190Z,17.77
2018-05-07T07:33:55.090Z,17.99
2018-05-07T07:36:20.642Z,17.81
2018-05-07T07:38:46.291Z,18.35
2018-05-07T07:41:12.023Z,18.25
2018-05-07T07:43:37.612Z,18.07
2018-05-07T07:46:03.176Z,18.16
2018-05-07T07:48:28.901Z,18.15
2018-05-07T07:50:54.458Z,17.95
2018-05-07T07:53:20.276Z,18.27
2018-05-07T07:55:46.120Z,18.27
2018-05-07T07:58:11.786Z,18.50
2018-05-07T08:00:37.541Z,18.18
2018-05-07T08:03:03.413Z,18.30
2018-05-07T08:05:29.037Z,18.47
2018-05-07T08:07:54.593Z,18.78
2018-05-07T08:10:20.704Z,18.78
2018-05-07T08:12:46.267Z,18.74
2018-05-07T08:15:11.812Z,18.91
2018-05-07T08:17:37.643Z,19.09
2018-05-07T08:20:03.250Z,19.01
2018-05-07T08:22:28.882Z,19.16
2018-05-07T08:24:54.700Z,19.41
2018-05-07T08:27:20.258Z,19.31
2018-05-07T08:29:45.887Z,19.39
2018-05-07T08:32:11.709Z,19.44
2018-05-07T08:34:37.266Z,19.14
2018-05-07T08:37:02.907Z,19.73
2018-05-07T08:39:28.733Z,19.64
2018-05-07T08:41:54.487Z,19.60
2018-05-07T08:44:20.055Z,19.73
2018-05-07T08:46:45.840Z,19.95
2018-05-07T08:49:11.652Z,20.00
2018-05-07T08:51:37.244Z,20.26
2018-05-07T08:54:02.984Z,20.14
2018-05-07T08:56:28.761Z,20.36
2018-05-07T08:58:54.371Z,20.16
2018-05-07T09:01:20.013Z,20.40
2018-05-07T09:03:45.785Z,20.24
2018-05-07T09:06:11.572Z,20.49
2018-05-07T09:08:37.474Z,20.65
2018-05-07T09:11:03.220Z,20.58
2018-05-07T09:13:28.852Z,20.81
2018-05-07T09:15:54.672Z,20.74
2018-05-07T09:18:20.409Z,20.85
2018-05-07T09:20:45.967Z,21.13
2018-05-07T09:23:11.636Z,21.15
2018-05-07T09:26:11.746Z,21.09
2018-05-07T09:28:37.402Z,20.99
2018-05-07T09:31:03.079Z,21.19
2018-05-07T09:33:28.917Z,21.19
2018-05-07T09:35:54.785Z,21.28
2018-05-07T09:38:20.347Z,21.51
2018-05-07T09:40:46.097Z,21.69
2018-05-07T09:43:11.746Z,21.80
2018-05-07T09:45:37.606Z,21.90
2018-05-07T09:48:03.360Z,22.04
2018-05-07T09:50:28.960Z,21.81
2018-05-07T09:52:54.554Z,21.77
2018-05-07T09:55:20.349Z,22.01
2018-05-07T09:58:04.051Z,22.24
2018-05-07T10:00:39.200Z,22.12
2018-05-07T10:03:04.762Z,22.02
2018-05-07T10:05:30.538Z,22.23
2018-05-07T10:07:56.383Z,22.17
2018-05-07T10:10:21.951Z,22.10
2018-05-07T10:12:47.524Z,22.20
2018-05-07T10:15:13.375Z,22.21
2018-05-07T10:17:39.005Z,22.11
2018-05-07T10:20:04.614Z,22.32
2018-05-07T10:22:30.322Z,22.30
2018-05-07T10:24:55.912Z,22.32
2018-05-07T10:27:21.700Z,22.42
2018-05-07T10:29:47.601Z,22.44
2018-05-07T10:32:13.124Z,22.54
2018-05-07T10:34:38.768Z,22.61
2018-05-07T10:37:04.547Z,22.64
2018-05-07T10:39:30.121Z,22.57
2018-05-07T10:41:55.737Z,22.74
2018-05-07T10:44:21.590Z,22.69
2018-05-07T10:46:47.152Z,22.75
2018-05-07T10:49:13.063Z,22.75
2018-05-07T10:51:38.872Z,22.88
2018-05-07T10:54:04.426Z,22.87
2018-05-07T10:56:29.996Z,22.95
2018-05-07T10:58:55.799Z,23.19
2018-05-07T11:01:21.383Z,23.18
2018-05-07T11:03:47.010Z,23.19
2018-05-07T11:06:12.792Z,23.16
2018-05-07T11:08:38.675Z,23.09
2018-05-07T11:11:04.293Z,23.43
2018-05-07T11:13:30.134Z,23.65
2018-05-07T11:15:55.668Z,23.61
2018-05-07T11:18:21.319Z,23.72
2018-05-07T11:20:46.945Z,23.82
2018-05-07T11:23:12.531Z,23.87
2018-05-07T16:36:42.472Z,25.81
2018-05-07T16:39:08.355Z,26.47
2018-05-07T16:41:33.925Z,26.37
2018-05-07T16:43:59.647Z,26.31
2018-05-07T16:46:25.200Z,26.28
2018-05-07T16:48:50.819Z,26.30
2018-05-07T16:51:16.622Z,26.26
2018-05-07T16:53:42.452Z,26.28
2018-05-07T16:56:08.040Z,26.37
2018-05-07T16:58:33.973Z,26.28
2018-05-07T17:00:59.578Z,26.11
2018-05-07T17:03:25.221Z,26.12
2018-05-07T17:05:51.007Z,26.15
2018-05-07T17:08:16.773Z,26.23
2018-05-07T17:10:42.306Z,25.90
2018-05-07T17:13:08.214Z,26.06
2018-05-07T17:15:33.778Z,25.99
2018-05-07T17:17:59.421Z,25.78
2018-05-07T17:20:25.244Z,25.71
2018-05-07T17:22:51.107Z,26.02
2018-05-07T17:25:16.752Z,25.92
2018-05-07T17:27:42.544Z,25.86
2018-05-07T17:30:08.181Z,25.85
2018-05-07T17:32:33.760Z,25.89
2018-05-07T17:34:59.611Z,26.00
2018-05-07T17:37:25.239Z,26.04
2018-05-07T17:39:50.803Z,25.96
2018-05-07T17:42:16.547Z,25.99
2018-05-07T17:45:16.893Z,25.78
2018-05-07T17:48:20.464Z,25.61
2018-05-07T17:50:46.020Z,25.50
2018-05-07T17:53:11.648Z,25.52
2018-05-07T17:55:37.458Z,25.49
2018-05-07T17:58:03.022Z,25.44
2018-05-07T18:00:28.637Z,25.38
2018-05-07T18:02:54.373Z,25.59
2018-05-07T18:05:19.926Z,25.23
2018-05-07T18:07:45.499Z,25.32
2018-05-07T18:10:11.541Z,25.19
2018-05-07T18:12:37.447Z,25.10
2018-05-07T18:15:03.017Z,25.03
2018-05-07T18:17:29.045Z,24.93
2018-05-07T18:19:54.680Z,24.97
2018-05-07T18:22:20.489Z,25.05
2018-05-07T18:24:46.197Z,25.09
2018-05-07T18:27:12.051Z,25.04
2018-05-07T18:29:39.900Z,24.49
2018-05-07T18:32:05.709Z,24.44
2018-05-07T18:34:31.273Z,24.38
2018-05-07T18:36:57.088Z,24.55
2018-05-07T18:39:22.641Z,24.30
2018-05-07T18:41:48.218Z,24.41
2018-05-07T18:44:14.003Z,24.18
2018-05-07T18:46:39.702Z,24.18
2018-05-07T18:49:05.274Z,24.30
2018-05-07T18:51:31.324Z,24.14
2018-05-07T18:53:56.871Z,24.26
2018-05-07T18:56:22.444Z,24.42
2018-05-07T18:58:48.204Z,24.03
2018-05-07T19:01:13.862Z,23.86
2018-05-07T19:03:39.498Z,23.95
2018-05-07T19:06:05.241Z,23.93
2018-05-07T19:08:30.828Z,24.06
2018-05-07T19:10:56.383Z,23.68
2018-05-07T19:13:22.221Z,23.48
2018-05-07T19:15:48.003Z,23.41
2018-05-07T19:18:13.596Z,23.37
2018-05-07T19:20:39.695Z,23.54
2018-05-07T19:23:05.247Z,23.38
2018-05-07T19:25:30.888Z,23.33
2018-05-07T19:27:56.593Z,22.99
2018-05-07T19:30:22.176Z,23.05
2018-05-07T19:32:47.818Z,22.89
2018-05-07T19:35:13.581Z,22.93
2018-05-07T19:37:39.491Z,22.90
2018-05-07T19:40:05.215Z,22.79
2018-05-07T19:42:31.232Z,23.10
2018-05-07T19:44:56.873Z,22.93
2018-05-07T19:47:22.521Z,22.74
2018-05-07T19:49:48.312Z,22.89
2018-05-07T19:52:14.143Z,22.92
2018-05-07T19:54:39.784Z,22.75
2018-05-07T19:57:05.402Z,22.69
2018-05-07T19:59:31.187Z,22.67
2018-05-07T20:01:56.820Z,22.63
2018-05-07T20:04:22.396Z,22.59
2018-05-07T20:06:48.156Z,22.52
2018-05-07T20:09:14.807Z,22.45
2018-05-07T20:11:40.460Z,22.53
2018-05-07T20:14:06.482Z,22.48
2018-05-07T20:16:32.059Z,22.18
2018-05-07T20:18:57.626Z,22.28
2018-05-07T20:21:23.405Z,22.30
2018-05-07T20:23:49.023Z,22.37
2018-05-07T20:26:14.646Z,22.30
2018-05-07T20:28:40.375Z,22.33
2018-05-07T20:31:05.938Z,22.29
2018-05-07T20:33:31.494Z,21.94
2018-05-07T20:35:57.290Z,21.89
2018-05-07T20:38:22.984Z,21.81
2018-05-07T20:40:48.544Z,21.76
2018-05-07T20:43:14.651Z,21.76
2018-05-07T20:45:40.279Z,21.71
2018-05-07T20:48:05.975Z,22.01
2018-05-07T20:50:31.704Z,21.84
2018-05-07T20:52:57.264Z,21.79
2018-05-07T20:55:22.904Z,21.92
2018-05-07T20:57:49.732Z,21.80
2018-05-07T21:00:15.296Z,21.65
2018-05-07T21:02:41.132Z,21.21
2018-05-07T21:05:06.774Z,21.00
2018-05-07T21:07:32.645Z,21.15
2018-05-07T21:09:58.248Z,20.95
2018-05-07T21:12:23.810Z,21.01
2018-05-07T21:14:49.560Z,20.75
2018-05-07T21:17:15.121Z,20.63
2018-05-07T21:19:41.076Z,20.57
2018-05-07T21:22:06.625Z,20.57
2018-05-07T21:24:32.197Z,20.68
2018-05-07T21:26:58.051Z,20.99
2018-05-07T21:29:23.611Z,21.04
2018-05-07T21:34:14.074Z,20.96
2018-05-07T21:36:39.704Z,20.94
2018-05-07T21:39:05.582Z,20.90
2018-05-07T21:41:31.162Z,20.74
2018-05-07T21:43:56.989Z,20.65
2018-05-07T21:46:23.068Z,20.91
2018-05-07T21:48:48.734Z,20.87
2018-05-07T21:51:14.379Z,20.89
2018-05-07T21:53:40.278Z,20.87
2018-05-07T21:56:05.856Z,21.05
2018-05-07T21:58:31.692Z,21.07
2018-05-07T22:00:57.433Z,21.04
2018-05-07T22:03:23.195Z,21.09
2018-05-07T22:05:48.792Z,20.85
2018-05-07T22:08:14.626Z,20.84
2018-05-07T22:10:40.206Z,20.80
2018-05-07T22:13:05.868Z,20.69
2018-05-07T22:15:31.652Z,20.66
2018-05-07T22:17:57.185Z,20.61
2018-05-07T22:20:22.747Z,20.50
2018-05-07T22:22:48.678Z,20.30
2018-05-07T22:25:14.368Z,20.27
2018-05-07T22:27:40.019Z,20.34
2018-05-07T22:30:05.799Z,20.26
2018-05-07T22:32:31.351Z,20.20
2018-05-07T22:34:57.161Z,19.93
2018-05-07T22:37:22.805Z,19.58
2018-05-07T22:39:48.388Z,19.57
2018-05-07T22:42:14.148Z,19.68
2018-05-07T22:44:39.765Z,19.39
2018-05-07T22:47:05.388Z,19.56
2018-05-07T22:49:31.292Z,19.47
2018-05-07T22:51:56.986Z,19.42
2018-05-07T22:54:22.550Z,19.55
2018-05-07T22:56:48.583Z,19.59
2018-05-07T22:59:14.170Z,19.46
2018-05-07T23:01:39.739Z,19.08
2018-05-07T23:04:05.542Z,18.97
2018-05-07T23:06:31.094Z,19.19
2018-05-07T23:08:56.907Z,19.21
2018-05-07T23:11:22.787Z,19.10
2018-05-07T23:13:48.437Z,18.91
2018-05-07T23:16:13.987Z,18.70
2018-05-07T23:18:39.739Z,18.65
2018-05-07T23:21:05.307Z,18.64
2018-05-07T23:23:31.022Z,18.49
2018-05-07T23:25:56.947Z,18.31
2018-05-07T23:28:22.562Z,18.57
2018-05-07T23:30:48.177Z,18.48
2018-05-07T23:33:13.928Z,18.41
2018-05-07T23:35:39.578Z,18.26
2018-05-07T23:38:05.124Z,18.41
2018-05-07T23:40:30.949Z,18.32
2018-05-07T23:42:56.572Z,18.32
2018-05-07T23:45:25.344Z,18.21
2018-05-07T23:47:51.255Z,18.16
2018-05-07T23:50:16.913Z,17.94
2018-05-07T23:52:42.785Z,18.11
2018-05-07T23:55:08.558Z,18.22
2018-05-07T23:57:34.189Z,18.02
2018-05-07T23:59:59.826Z,17.87
